sensor_id;sensor_type;location;lat;lon;timestamp;temperature;humidity
12634;DHT22;6382;48.614;8.880;2023-12-20T00:01:26;4.90;99.90
12634;DHT22;6382;48.614;8.880;2023-12-20T00:03:51;4.90;99.90
12634;DHT22;6382;48.614;8.880;2023-12-20T00:06:17;4.90;99.90
12634;DHT22;6382;48.614;8.880;2023-12-20T00:08:42;4.90;99.90
12634;DHT22;6382;48.614;8.880;2023-12-20T00:11:09;4.90;99.90
12634;DHT22;6382;48.614;8.880;2023-12-20T00:13:34;4.90;99.90
12634;DHT22;6382;48.614;8.880;2023-12-20T00:16:00;4.90;99.90
12634;DHT22;6382;48.614;8.880;2023-12-20T00:18:25;4.90;99.90
12634;DHT22;6382;48.614;8.880;2023-12-20T00:20:51;4.90;99.90
12634;DHT22;6382;48.614;8.880;2023-12-20T00:23:16;4.90;99.90
12634;DHT22;6382;48.614;8.880;2023-12-20T00:25:42;4.90;99.90
12634;DHT22;6382;48.614;8.880;2023-12-20T00:28:07;4.80;99.90
12634;DHT22;6382;48.614;8.880;2023-12-20T00:30:33;4.90;99.90
12634;DHT22;6382;48.614;8.880;2023-12-20T00:32:58;4.80;99.90
12634;DHT22;6382;48.614;8.880;2023-12-20T00:35:24;4.80;99.90
12634;DHT22;6382;48.614;8.880;2023-12-20T00:37:49;4.80;99.90
12634;DHT22;6382;48.614;8.880;2023-12-20T00:40:15;4.80;99.90
12634;DHT22;6382;48.614;8.880;2023-12-20T00:42:40;4.70;99.90
12634;DHT22;6382;48.614;8.880;2023-12-20T00:45:06;4.70;99.90
12634;DHT22;6382;48.614;8.880;2023-12-20T00:47:32;4.70;99.90
12634;DHT22;6382;48.614;8.880;2023-12-20T00:49:57;4.80;99.90
12634;DHT22;6382;48.614;8.880;2023-12-20T00:52:23;4.80;99.90
12634;DHT22;6382;48.614;8.880;2023-12-20T00:54:48;4.70;99.90
12634;DHT22;6382;48.614;8.880;2023-12-20T00:57:14;4.70;99.90
12634;DHT22;6382;48.614;8.880;2023-12-20T00:59:40;4.70;99.90
12634;DHT22;6382;48.614;8.880;2023-12-20T01:02:06;4.70;99.90
12634;DHT22;6382;48.614;8.880;2023-12-20T01:04:31;4.70;99.90
12634;DHT22;6382;48.614;8.880;2023-12-20T01:06:57;4.70;99.90
12634;DHT22;6382;48.614;8.880;2023-12-20T01:09:22;4.70;99.90
12634;DHT22;6382;48.614;8.880;2023-12-20T01:11:54;4.70;99.90
12634;DHT22;6382;48.614;8.880;2023-12-20T01:14:19;4.70;99.90
12634;DHT22;6382;48.614;8.880;2023-12-20T01:16:45;4.70;99.90
12634;DHT22;6382;48.614;8.880;2023-12-20T01:19:10;4.70;99.90
12634;DHT22;6382;48.614;8.880;2023-12-20T01:21:36;4.70;99.90
12634;DHT22;6382;48.614;8.880;2023-12-20T01:24:02;4.60;99.90
12634;DHT22;6382;48.614;8.880;2023-12-20T01:26:27;4.60;99.90
12634;DHT22;6382;48.614;8.880;2023-12-20T01:28:53;4.70;99.90
12634;DHT22;6382;48.614;8.880;2023-12-20T01:31:18;4.70;99.90
12634;DHT22;6382;48.614;8.880;2023-12-20T01:33:44;4.70;99.90
12634;DHT22;6382;48.614;8.880;2023-12-20T01:36:09;4.60;99.90
12634;DHT22;6382;48.614;8.880;2023-12-20T01:38:35;4.70;99.90
12634;DHT22;6382;48.614;8.880;2023-12-20T01:41:00;4.60;99.90
12634;DHT22;6382;48.614;8.880;2023-12-20T01:43:26;4.60;99.90
12634;DHT22;6382;48.614;8.880;2023-12-20T01:45:51;4.70;99.90
12634;DHT22;6382;48.614;8.880;2023-12-20T01:48:17;4.70;99.90
12634;DHT22;6382;48.614;8.880;2023-12-20T01:50:43;4.60;99.90
12634;DHT22;6382;48.614;8.880;2023-12-20T01:53:09;4.60;99.90
12634;DHT22;6382;48.614;8.880;2023-12-20T01:55:36;4.70;99.90
12634;DHT22;6382;48.614;8.880;2023-12-20T01:58:03;4.70;99.90
12634;DHT22;6382;48.614;8.880;2023-12-20T02:00:30;4.70;99.90
12634;DHT22;6382;48.614;8.880;2023-12-20T02:02:56;4.70;99.90
12634;DHT22;6382;48.614;8.880;2023-12-20T02:05:22;4.70;99.90
12634;DHT22;6382;48.614;8.880;2023-12-20T02:07:47;4.70;99.90
12634;DHT22;6382;48.614;8.880;2023-12-20T02:10:13;4.70;99.90
12634;DHT22;6382;48.614;8.880;2023-12-20T02:12:38;4.70;99.90
12634;DHT22;6382;48.614;8.880;2023-12-20T02:15:04;4.70;99.90
12634;DHT22;6382;48.614;8.880;2023-12-20T02:17:31;4.70;99.90
12634;DHT22;6382;48.614;8.880;2023-12-20T02:19:56;4.70;99.90
12634;DHT22;6382;48.614;8.880;2023-12-20T02:22:22;4.70;99.90
12634;DHT22;6382;48.614;8.880;2023-12-20T02:24:47;4.70;99.90
12634;DHT22;6382;48.614;8.880;2023-12-20T02:27:13;4.70;99.90
12634;DHT22;6382;48.614;8.880;2023-12-20T02:29:40;4.70;99.90
12634;DHT22;6382;48.614;8.880;2023-12-20T02:32:05;4.70;99.90
12634;DHT22;6382;48.614;8.880;2023-12-20T02:34:31;4.70;99.90
12634;DHT22;6382;48.614;8.880;2023-12-20T02:36:56;4.70;99.90
12634;DHT22;6382;48.614;8.880;2023-12-20T02:39:22;4.70;99.90
12634;DHT22;6382;48.614;8.880;2023-12-20T02:41:48;4.70;99.90
12634;DHT22;6382;48.614;8.880;2023-12-20T02:44:13;4.60;99.90
12634;DHT22;6382;48.614;8.880;2023-12-20T02:46:39;4.60;99.90
12634;DHT22;6382;48.614;8.880;2023-12-20T02:49:05;4.60;99.90
12634;DHT22;6382;48.614;8.880;2023-12-20T02:51:31;4.70;99.90
12634;DHT22;6382;48.614;8.880;2023-12-20T02:53:56;4.60;99.90
12634;DHT22;6382;48.614;8.880;2023-12-20T02:56:21;4.60;99.90
12634;DHT22;6382;48.614;8.880;2023-12-20T02:58:47;4.60;99.90
12634;DHT22;6382;48.614;8.880;2023-12-20T03:01:12;4.60;99.90
12634;DHT22;6382;48.614;8.880;2023-12-20T03:03:38;6.10;99.90
12634;DHT22;6382;48.614;8.880;2023-12-20T03:06:03;4.60;99.90
12634;DHT22;6382;48.614;8.880;2023-12-20T03:08:29;4.60;99.90
12634;DHT22;6382;48.614;8.880;2023-12-20T03:10:54;4.60;99.90
12634;DHT22;6382;48.614;8.880;2023-12-20T03:13:20;4.70;99.90
12634;DHT22;6382;48.614;8.880;2023-12-20T03:15:45;4.60;99.90
12634;DHT22;6382;48.614;8.880;2023-12-20T03:18:11;4.60;99.90
12634;DHT22;6382;48.614;8.880;2023-12-20T03:20:37;4.60;99.90
12634;DHT22;6382;48.614;8.880;2023-12-20T03:23:02;4.60;99.90
12634;DHT22;6382;48.614;8.880;2023-12-20T03:25:28;4.60;99.90
12634;DHT22;6382;48.614;8.880;2023-12-20T03:27:53;4.60;99.90
12634;DHT22;6382;48.614;8.880;2023-12-20T03:30:19;4.60;99.90
12634;DHT22;6382;48.614;8.880;2023-12-20T03:32:45;4.50;99.90
12634;DHT22;6382;48.614;8.880;2023-12-20T03:35:10;4.60;99.90
12634;DHT22;6382;48.614;8.880;2023-12-20T03:37:36;4.60;99.90
12634;DHT22;6382;48.614;8.880;2023-12-20T03:40:02;4.60;99.90
12634;DHT22;6382;48.614;8.880;2023-12-20T03:42:27;4.50;99.90
12634;DHT22;6382;48.614;8.880;2023-12-20T03:44:53;4.50;99.90
12634;DHT22;6382;48.614;8.880;2023-12-20T03:47:18;4.50;99.90
12634;DHT22;6382;48.614;8.880;2023-12-20T03:49:43;4.50;99.90
12634;DHT22;6382;48.614;8.880;2023-12-20T03:52:09;5.50;99.90
12634;DHT22;6382;48.614;8.880;2023-12-20T03:54:35;4.50;99.90
12634;DHT22;6382;48.614;8.880;2023-12-20T03:57:00;4.50;99.90
12634;DHT22;6382;48.614;8.880;2023-12-20T03:59:26;4.50;99.90
12634;DHT22;6382;48.614;8.880;2023-12-20T04:01:51;4.50;99.90
12634;DHT22;6382;48.614;8.880;2023-12-20T04:04:17;4.50;99.90
12634;DHT22;6382;48.614;8.880;2023-12-20T04:06:42;4.50;99.90
12634;DHT22;6382;48.614;8.880;2023-12-20T04:09:08;4.40;99.90
12634;DHT22;6382;48.614;8.880;2023-12-20T04:11:37;4.40;99.90
12634;DHT22;6382;48.614;8.880;2023-12-20T04:14:02;4.40;99.90
12634;DHT22;6382;48.614;8.880;2023-12-20T04:16:30;4.40;99.90
12634;DHT22;6382;48.614;8.880;2023-12-20T04:18:55;4.40;99.90
12634;DHT22;6382;48.614;8.880;2023-12-20T04:21:21;4.40;99.90
12634;DHT22;6382;48.614;8.880;2023-12-20T04:23:46;4.40;99.90
12634;DHT22;6382;48.614;8.880;2023-12-20T04:26:12;4.40;99.90
12634;DHT22;6382;48.614;8.880;2023-12-20T04:28:37;4.30;99.90
12634;DHT22;6382;48.614;8.880;2023-12-20T04:31:03;4.30;99.90
12634;DHT22;6382;48.614;8.880;2023-12-20T04:33:28;4.30;99.90
12634;DHT22;6382;48.614;8.880;2023-12-20T04:35:54;4.30;99.90
12634;DHT22;6382;48.614;8.880;2023-12-20T04:38:19;4.30;99.90
12634;DHT22;6382;48.614;8.880;2023-12-20T04:40:45;4.30;99.90
12634;DHT22;6382;48.614;8.880;2023-12-20T04:43:10;4.30;99.90
12634;DHT22;6382;48.614;8.880;2023-12-20T04:45:36;4.30;99.90
12634;DHT22;6382;48.614;8.880;2023-12-20T04:48:02;4.20;99.90
12634;DHT22;6382;48.614;8.880;2023-12-20T04:50:27;4.20;99.90
12634;DHT22;6382;48.614;8.880;2023-12-20T04:52:53;4.20;99.90
12634;DHT22;6382;48.614;8.880;2023-12-20T04:55:18;4.20;99.90
12634;DHT22;6382;48.614;8.880;2023-12-20T04:57:44;4.30;99.90
12634;DHT22;6382;48.614;8.880;2023-12-20T05:00:09;4.30;99.90
12634;DHT22;6382;48.614;8.880;2023-12-20T05:02:35;4.30;99.90
12634;DHT22;6382;48.614;8.880;2023-12-20T05:05:01;4.30;99.90
12634;DHT22;6382;48.614;8.880;2023-12-20T05:07:27;4.20;99.90
12634;DHT22;6382;48.614;8.880;2023-12-20T05:09:52;5.00;99.90
12634;DHT22;6382;48.614;8.880;2023-12-20T05:12:18;4.30;99.90
12634;DHT22;6382;48.614;8.880;2023-12-20T05:14:44;4.20;99.90
12634;DHT22;6382;48.614;8.880;2023-12-20T05:17:09;4.20;99.90
12634;DHT22;6382;48.614;8.880;2023-12-20T05:19:35;4.20;99.90
12634;DHT22;6382;48.614;8.880;2023-12-20T05:22:01;4.20;99.90
12634;DHT22;6382;48.614;8.880;2023-12-20T05:24:27;4.20;99.90
12634;DHT22;6382;48.614;8.880;2023-12-20T05:26:52;4.20;99.90
12634;DHT22;6382;48.614;8.880;2023-12-20T05:29:18;4.20;99.90
12634;DHT22;6382;48.614;8.880;2023-12-20T05:31:43;4.20;99.90
12634;DHT22;6382;48.614;8.880;2023-12-20T05:34:09;4.20;99.90
12634;DHT22;6382;48.614;8.880;2023-12-20T05:36:34;4.20;99.90
12634;DHT22;6382;48.614;8.880;2023-12-20T05:39:00;4.20;99.90
12634;DHT22;6382;48.614;8.880;2023-12-20T05:41:25;4.20;99.90
12634;DHT22;6382;48.614;8.880;2023-12-20T05:43:51;4.20;99.90
12634;DHT22;6382;48.614;8.880;2023-12-20T05:46:16;4.20;99.90
12634;DHT22;6382;48.614;8.880;2023-12-20T05:48:42;4.20;99.90
12634;DHT22;6382;48.614;8.880;2023-12-20T05:51:07;4.20;99.90
12634;DHT22;6382;48.614;8.880;2023-12-20T05:53:33;4.20;99.90
12634;DHT22;6382;48.614;8.880;2023-12-20T05:55:58;4.20;99.90
12634;DHT22;6382;48.614;8.880;2023-12-20T05:58:25;4.20;99.90
12634;DHT22;6382;48.614;8.880;2023-12-20T06:00:50;4.30;99.90
12634;DHT22;6382;48.614;8.880;2023-12-20T06:03:16;4.20;99.90
12634;DHT22;6382;48.614;8.880;2023-12-20T06:05:41;4.20;99.90
12634;DHT22;6382;48.614;8.880;2023-12-20T06:08:06;4.30;99.90
12634;DHT22;6382;48.614;8.880;2023-12-20T06:10:32;4.20;99.90
12634;DHT22;6382;48.614;8.880;2023-12-20T06:12:57;4.30;99.90
12634;DHT22;6382;48.614;8.880;2023-12-20T06:15:25;4.20;99.90
12634;DHT22;6382;48.614;8.880;2023-12-20T06:17:51;4.20;99.90
12634;DHT22;6382;48.614;8.880;2023-12-20T06:20:16;4.20;99.90
12634;DHT22;6382;48.614;8.880;2023-12-20T06:22:42;4.20;99.90
12634;DHT22;6382;48.614;8.880;2023-12-20T06:25:08;4.20;99.90
12634;DHT22;6382;48.614;8.880;2023-12-20T06:27:34;4.20;99.90
12634;DHT22;6382;48.614;8.880;2023-12-20T06:29:59;4.10;99.90
12634;DHT22;6382;48.614;8.880;2023-12-20T06:32:25;4.10;99.90
12634;DHT22;6382;48.614;8.880;2023-12-20T06:34:50;4.10;99.90
12634;DHT22;6382;48.614;8.880;2023-12-20T06:37:16;4.00;99.90
12634;DHT22;6382;48.614;8.880;2023-12-20T06:39:41;4.00;99.90
12634;DHT22;6382;48.614;8.880;2023-12-20T06:42:07;4.00;99.90
12634;DHT22;6382;48.614;8.880;2023-12-20T06:44:32;4.00;99.90
12634;DHT22;6382;48.614;8.880;2023-12-20T06:46:58;4.00;99.90
12634;DHT22;6382;48.614;8.880;2023-12-20T06:49:23;4.10;99.90
12634;DHT22;6382;48.614;8.880;2023-12-20T06:51:49;4.10;99.90
12634;DHT22;6382;48.614;8.880;2023-12-20T06:54:14;4.20;99.90
12634;DHT22;6382;48.614;8.880;2023-12-20T06:56:40;4.20;99.90
12634;DHT22;6382;48.614;8.880;2023-12-20T06:59:06;4.30;99.90
12634;DHT22;6382;48.614;8.880;2023-12-20T07:01:32;4.30;99.90
12634;DHT22;6382;48.614;8.880;2023-12-20T07:03:57;4.30;99.90
12634;DHT22;6382;48.614;8.880;2023-12-20T07:06:22;4.30;99.90
12634;DHT22;6382;48.614;8.880;2023-12-20T07:08:49;4.30;99.90
12634;DHT22;6382;48.614;8.880;2023-12-20T07:11:14;4.30;99.90
12634;DHT22;6382;48.614;8.880;2023-12-20T07:13:40;4.30;99.90
12634;DHT22;6382;48.614;8.880;2023-12-20T07:16:05;5.70;99.90
12634;DHT22;6382;48.614;8.880;2023-12-20T07:18:31;4.30;99.90
12634;DHT22;6382;48.614;8.880;2023-12-20T07:20:56;4.40;99.90
12634;DHT22;6382;48.614;8.880;2023-12-20T07:23:22;4.30;99.90
12634;DHT22;6382;48.614;8.880;2023-12-20T07:25:47;4.30;99.90
12634;DHT22;6382;48.614;8.880;2023-12-20T07:28:13;4.30;99.90
12634;DHT22;6382;48.614;8.880;2023-12-20T07:30:39;4.30;99.90
12634;DHT22;6382;48.614;8.880;2023-12-20T07:33:04;4.40;99.90
12634;DHT22;6382;48.614;8.880;2023-12-20T07:35:30;4.30;99.90
12634;DHT22;6382;48.614;8.880;2023-12-20T07:37:55;4.40;99.90
12634;DHT22;6382;48.614;8.880;2023-12-20T07:40:21;4.40;99.90
12634;DHT22;6382;48.614;8.880;2023-12-20T07:42:46;4.40;99.90
12634;DHT22;6382;48.614;8.880;2023-12-20T07:45:12;4.40;99.90
12634;DHT22;6382;48.614;8.880;2023-12-20T07:47:37;4.40;99.90
12634;DHT22;6382;48.614;8.880;2023-12-20T07:50:03;4.50;99.90
12634;DHT22;6382;48.614;8.880;2023-12-20T07:52:29;4.40;99.90
12634;DHT22;6382;48.614;8.880;2023-12-20T07:54:54;4.50;99.90
12634;DHT22;6382;48.614;8.880;2023-12-20T07:57:20;4.50;99.90
12634;DHT22;6382;48.614;8.880;2023-12-20T07:59:46;4.50;99.90
12634;DHT22;6382;48.614;8.880;2023-12-20T08:02:11;4.50;99.90
12634;DHT22;6382;48.614;8.880;2023-12-20T08:04:37;4.50;99.90
12634;DHT22;6382;48.614;8.880;2023-12-20T08:07:03;4.60;99.90
12634;DHT22;6382;48.614;8.880;2023-12-20T08:09:28;4.50;99.90
12634;DHT22;6382;48.614;8.880;2023-12-20T08:11:54;4.60;99.90
12634;DHT22;6382;48.614;8.880;2023-12-20T08:14:19;4.60;99.90
12634;DHT22;6382;48.614;8.880;2023-12-20T08:16:45;4.60;99.90
12634;DHT22;6382;48.614;8.880;2023-12-20T08:19:10;4.60;99.90
12634;DHT22;6382;48.614;8.880;2023-12-20T08:21:36;4.60;99.90
12634;DHT22;6382;48.614;8.880;2023-12-20T08:24:01;4.60;99.90
12634;DHT22;6382;48.614;8.880;2023-12-20T08:26:27;4.60;99.90
12634;DHT22;6382;48.614;8.880;2023-12-20T08:28:52;4.50;99.90
12634;DHT22;6382;48.614;8.880;2023-12-20T08:31:18;4.50;99.90
12634;DHT22;6382;48.614;8.880;2023-12-20T08:33:44;4.50;99.90
12634;DHT22;6382;48.614;8.880;2023-12-20T08:36:09;4.50;99.90
12634;DHT22;6382;48.614;8.880;2023-12-20T08:38:35;4.50;99.90
12634;DHT22;6382;48.614;8.880;2023-12-20T08:41:01;4.50;99.90
12634;DHT22;6382;48.614;8.880;2023-12-20T08:43:28;4.50;99.90
12634;DHT22;6382;48.614;8.880;2023-12-20T08:45:54;4.50;99.90
12634;DHT22;6382;48.614;8.880;2023-12-20T08:48:19;4.50;99.90
12634;DHT22;6382;48.614;8.880;2023-12-20T08:50:45;4.40;99.90
12634;DHT22;6382;48.614;8.880;2023-12-20T08:53:11;4.50;99.90
12634;DHT22;6382;48.614;8.880;2023-12-20T08:55:36;4.50;99.90
12634;DHT22;6382;48.614;8.880;2023-12-20T08:58:02;4.50;99.90
12634;DHT22;6382;48.614;8.880;2023-12-20T09:00:28;4.60;99.90
12634;DHT22;6382;48.614;8.880;2023-12-20T09:02:54;4.70;99.90
12634;DHT22;6382;48.614;8.880;2023-12-20T09:05:19;4.80;99.90
12634;DHT22;6382;48.614;8.880;2023-12-20T09:07:45;4.80;99.90
12634;DHT22;6382;48.614;8.880;2023-12-20T09:10:10;4.70;99.90
12634;DHT22;6382;48.614;8.880;2023-12-20T09:12:36;4.60;99.90
12634;DHT22;6382;48.614;8.880;2023-12-20T09:15:05;4.50;99.90
12634;DHT22;6382;48.614;8.880;2023-12-20T09:17:30;4.40;99.90
12634;DHT22;6382;48.614;8.880;2023-12-20T09:19:56;4.30;99.90
12634;DHT22;6382;48.614;8.880;2023-12-20T09:22:21;4.20;99.90
12634;DHT22;6382;48.614;8.880;2023-12-20T09:24:47;4.10;99.90
12634;DHT22;6382;48.614;8.880;2023-12-20T09:27:13;4.00;99.90
12634;DHT22;6382;48.614;8.880;2023-12-20T09:29:38;4.00;99.90
12634;DHT22;6382;48.614;8.880;2023-12-20T09:32:03;3.90;99.90
12634;DHT22;6382;48.614;8.880;2023-12-20T09:34:29;3.90;99.90
12634;DHT22;6382;48.614;8.880;2023-12-20T09:36:54;4.00;99.90
12634;DHT22;6382;48.614;8.880;2023-12-20T09:39:20;4.00;99.90
12634;DHT22;6382;48.614;8.880;2023-12-20T09:41:49;4.00;99.90
12634;DHT22;6382;48.614;8.880;2023-12-20T09:44:16;3.90;99.90
12634;DHT22;6382;48.614;8.880;2023-12-20T09:46:45;4.00;99.90
12634;DHT22;6382;48.614;8.880;2023-12-20T09:49:14;4.00;99.90
12634;DHT22;6382;48.614;8.880;2023-12-20T09:51:41;4.00;99.90
12634;DHT22;6382;48.614;8.880;2023-12-20T09:54:07;4.00;99.90
12634;DHT22;6382;48.614;8.880;2023-12-20T09:56:32;4.00;99.90
12634;DHT22;6382;48.614;8.880;2023-12-20T09:58:59;3.90;99.90
12634;DHT22;6382;48.614;8.880;2023-12-20T10:01:24;4.00;99.90
12634;DHT22;6382;48.614;8.880;2023-12-20T10:03:51;4.10;99.90
12634;DHT22;6382;48.614;8.880;2023-12-20T10:06:19;4.20;99.90
12634;DHT22;6382;48.614;8.880;2023-12-20T10:08:44;4.40;99.90
12634;DHT22;6382;48.614;8.880;2023-12-20T10:11:10;4.50;99.90
12634;DHT22;6382;48.614;8.880;2023-12-20T10:13:39;4.70;99.90
12634;DHT22;6382;48.614;8.880;2023-12-20T10:16:05;4.70;99.90
12634;DHT22;6382;48.614;8.880;2023-12-20T10:18:31;4.90;99.90
12634;DHT22;6382;48.614;8.880;2023-12-20T10:20:57;5.00;99.90
12634;DHT22;6382;48.614;8.880;2023-12-20T10:23:22;5.10;99.90
12634;DHT22;6382;48.614;8.880;2023-12-20T10:26:22;5.10;99.90
12634;DHT22;6382;48.614;8.880;2023-12-20T10:28:40;5.20;99.90
12634;DHT22;6382;48.614;8.880;2023-12-20T10:31:05;5.30;99.90
12634;DHT22;6382;48.614;8.880;2023-12-20T10:33:31;5.30;99.90
12634;DHT22;6382;48.614;8.880;2023-12-20T10:36:00;5.40;99.90
12634;DHT22;6382;48.614;8.880;2023-12-20T10:38:25;5.40;99.90
12634;DHT22;6382;48.614;8.880;2023-12-20T10:40:56;5.40;99.90
12634;DHT22;6382;48.614;8.880;2023-12-20T10:43:23;5.40;99.90
12634;DHT22;6382;48.614;8.880;2023-12-20T10:45:51;5.50;99.90
12634;DHT22;6382;48.614;8.880;2023-12-20T10:48:17;5.40;99.90
12634;DHT22;6382;48.614;8.880;2023-12-20T10:50:43;5.30;99.90
12634;DHT22;6382;48.614;8.880;2023-12-20T10:53:09;5.30;99.90
12634;DHT22;6382;48.614;8.880;2023-12-20T10:55:37;5.20;99.90
12634;DHT22;6382;48.614;8.880;2023-12-20T10:58:09;5.20;99.90
12634;DHT22;6382;48.614;8.880;2023-12-20T11:00:35;5.20;99.90
12634;DHT22;6382;48.614;8.880;2023-12-20T11:03:04;5.20;99.90
12634;DHT22;6382;48.614;8.880;2023-12-20T11:05:40;5.20;99.90
12634;DHT22;6382;48.614;8.880;2023-12-20T11:10:36;5.20;99.90
12634;DHT22;6382;48.614;8.880;2023-12-20T11:15:28;5.20;99.90
12634;DHT22;6382;48.614;8.880;2023-12-20T11:17:57;5.20;99.90
12634;DHT22;6382;48.614;8.880;2023-12-20T11:20:24;5.20;99.90
12634;DHT22;6382;48.614;8.880;2023-12-20T11:22:53;5.30;99.90
12634;DHT22;6382;48.614;8.880;2023-12-20T11:25:19;5.30;99.90
12634;DHT22;6382;48.614;8.880;2023-12-20T11:27:46;5.30;99.90
12634;DHT22;6382;48.614;8.880;2023-12-20T11:30:40;5.30;99.90
12634;DHT22;6382;48.614;8.880;2023-12-20T11:33:07;5.20;99.90
12634;DHT22;6382;48.614;8.880;2023-12-20T11:35:32;5.20;99.90
12634;DHT22;6382;48.614;8.880;2023-12-20T11:37:58;5.20;99.90
12634;DHT22;6382;48.614;8.880;2023-12-20T11:40:23;5.20;99.90
12634;DHT22;6382;48.614;8.880;2023-12-20T11:42:50;5.20;99.90
12634;DHT22;6382;48.614;8.880;2023-12-20T11:45:17;5.10;99.90
12634;DHT22;6382;48.614;8.880;2023-12-20T11:47:45;5.20;99.90
12634;DHT22;6382;48.614;8.880;2023-12-20T11:50:11;5.10;99.90
12634;DHT22;6382;48.614;8.880;2023-12-20T11:52:37;5.10;99.90
12634;DHT22;6382;48.614;8.880;2023-12-20T11:55:03;5.00;99.90
12634;DHT22;6382;48.614;8.880;2023-12-20T11:57:29;5.00;99.90
12634;DHT22;6382;48.614;8.880;2023-12-20T11:59:54;5.00;99.90
12634;DHT22;6382;48.614;8.880;2023-12-20T12:02:20;4.90;99.90
12634;DHT22;6382;48.614;8.880;2023-12-20T12:04:45;4.90;99.90
12634;DHT22;6382;48.614;8.880;2023-12-20T12:07:13;5.70;99.90
12634;DHT22;6382;48.614;8.880;2023-12-20T12:09:38;4.90;99.90
12634;DHT22;6382;48.614;8.880;2023-12-20T12:12:04;4.90;99.90
12634;DHT22;6382;48.614;8.880;2023-12-20T12:14:30;4.90;99.90
12634;DHT22;6382;48.614;8.880;2023-12-20T12:16:55;4.90;99.90
12634;DHT22;6382;48.614;8.880;2023-12-20T12:19:24;4.90;99.90
12634;DHT22;6382;48.614;8.880;2023-12-20T12:22:08;5.00;99.90
12634;DHT22;6382;48.614;8.880;2023-12-20T12:24:38;5.00;99.90
12634;DHT22;6382;48.614;8.880;2023-12-20T12:27:05;5.00;99.90
12634;DHT22;6382;48.614;8.880;2023-12-20T12:29:31;5.00;99.90
12634;DHT22;6382;48.614;8.880;2023-12-20T12:31:56;5.10;99.90
12634;DHT22;6382;48.614;8.880;2023-12-20T12:34:22;5.10;99.90
12634;DHT22;6382;48.614;8.880;2023-12-20T12:36:48;5.10;99.90
12634;DHT22;6382;48.614;8.880;2023-12-20T12:39:13;5.20;99.90
12634;DHT22;6382;48.614;8.880;2023-12-20T12:41:41;5.20;99.90
12634;DHT22;6382;48.614;8.880;2023-12-20T12:44:06;5.20;99.90
12634;DHT22;6382;48.614;8.880;2023-12-20T12:46:32;5.20;99.90
12634;DHT22;6382;48.614;8.880;2023-12-20T12:48:58;5.10;99.90
12634;DHT22;6382;48.614;8.880;2023-12-20T12:51:23;5.10;99.90
12634;DHT22;6382;48.614;8.880;2023-12-20T12:53:49;5.00;99.90
12634;DHT22;6382;48.614;8.880;2023-12-20T12:56:14;4.90;99.90
12634;DHT22;6382;48.614;8.880;2023-12-20T12:58:40;5.00;99.90
12634;DHT22;6382;48.614;8.880;2023-12-20T13:01:06;5.00;99.90
12634;DHT22;6382;48.614;8.880;2023-12-20T13:03:31;5.00;99.90
12634;DHT22;6382;48.614;8.880;2023-12-20T13:05:56;5.00;99.90
12634;DHT22;6382;48.614;8.880;2023-12-20T13:08:22;5.10;99.90
12634;DHT22;6382;48.614;8.880;2023-12-20T13:10:47;5.10;99.90
12634;DHT22;6382;48.614;8.880;2023-12-20T13:13:13;5.10;99.90
12634;DHT22;6382;48.614;8.880;2023-12-20T13:15:39;5.10;99.90
12634;DHT22;6382;48.614;8.880;2023-12-20T13:18:04;5.10;99.90
12634;DHT22;6382;48.614;8.880;2023-12-20T13:20:31;5.10;99.90
12634;DHT22;6382;48.614;8.880;2023-12-20T13:22:56;5.10;99.90
12634;DHT22;6382;48.614;8.880;2023-12-20T13:25:22;5.10;99.90
12634;DHT22;6382;48.614;8.880;2023-12-20T13:27:47;5.10;99.90
12634;DHT22;6382;48.614;8.880;2023-12-20T13:30:13;5.10;99.90
12634;DHT22;6382;48.614;8.880;2023-12-20T13:32:39;5.10;99.90
12634;DHT22;6382;48.614;8.880;2023-12-20T13:35:05;5.10;99.90
12634;DHT22;6382;48.614;8.880;2023-12-20T13:37:30;5.10;99.90
12634;DHT22;6382;48.614;8.880;2023-12-20T13:39:56;5.10;99.90
12634;DHT22;6382;48.614;8.880;2023-12-20T13:42:23;5.00;99.90
12634;DHT22;6382;48.614;8.880;2023-12-20T13:44:48;5.10;99.90
12634;DHT22;6382;48.614;8.880;2023-12-20T13:47:14;5.90;99.90
12634;DHT22;6382;48.614;8.880;2023-12-20T13:49:39;5.00;99.90
12634;DHT22;6382;48.614;8.880;2023-12-20T13:52:05;5.10;99.90
12634;DHT22;6382;48.614;8.880;2023-12-20T13:54:30;5.10;99.90
12634;DHT22;6382;48.614;8.880;2023-12-20T13:56:56;5.10;99.90
12634;DHT22;6382;48.614;8.880;2023-12-20T13:59:23;5.10;99.90
12634;DHT22;6382;48.614;8.880;2023-12-20T14:01:48;5.10;99.90
12634;DHT22;6382;48.614;8.880;2023-12-20T14:04:15;5.00;99.90
12634;DHT22;6382;48.614;8.880;2023-12-20T14:06:41;5.00;99.90
12634;DHT22;6382;48.614;8.880;2023-12-20T14:09:06;4.90;99.90
12634;DHT22;6382;48.614;8.880;2023-12-20T14:11:32;4.90;99.90
12634;DHT22;6382;48.614;8.880;2023-12-20T14:13:57;4.80;99.90
12634;DHT22;6382;48.614;8.880;2023-12-20T14:16:26;4.80;99.90
12634;DHT22;6382;48.614;8.880;2023-12-20T14:18:51;4.80;99.90
12634;DHT22;6382;48.614;8.880;2023-12-20T14:21:17;4.70;99.90
12634;DHT22;6382;48.614;8.880;2023-12-20T14:23:43;4.70;99.90
12634;DHT22;6382;48.614;8.880;2023-12-20T14:26:08;4.70;99.90
12634;DHT22;6382;48.614;8.880;2023-12-20T14:28:40;4.70;99.90
12634;DHT22;6382;48.614;8.880;2023-12-20T14:31:06;4.60;99.90
12634;DHT22;6382;48.614;8.880;2023-12-20T14:33:31;4.50;99.90
12634;DHT22;6382;48.614;8.880;2023-12-20T14:35:57;4.50;99.90
12634;DHT22;6382;48.614;8.880;2023-12-20T14:38:22;4.50;99.90
12634;DHT22;6382;48.614;8.880;2023-12-20T14:40:48;4.50;99.90
12634;DHT22;6382;48.614;8.880;2023-12-20T14:43:13;4.40;99.90
12634;DHT22;6382;48.614;8.880;2023-12-20T14:45:39;4.40;99.90
12634;DHT22;6382;48.614;8.880;2023-12-20T14:48:04;4.40;99.90
12634;DHT22;6382;48.614;8.880;2023-12-20T14:50:30;4.30;99.90
12634;DHT22;6382;48.614;8.880;2023-12-20T14:52:56;4.30;99.90
12634;DHT22;6382;48.614;8.880;2023-12-20T14:55:21;4.30;99.90
12634;DHT22;6382;48.614;8.880;2023-12-20T14:57:47;4.20;99.90
12634;DHT22;6382;48.614;8.880;2023-12-20T15:00:12;4.20;99.90
12634;DHT22;6382;48.614;8.880;2023-12-20T15:02:42;4.20;99.90
12634;DHT22;6382;48.614;8.880;2023-12-20T15:05:08;4.10;99.90
12634;DHT22;6382;48.614;8.880;2023-12-20T15:07:33;4.10;99.90
12634;DHT22;6382;48.614;8.880;2023-12-20T15:10:00;4.10;99.90
12634;DHT22;6382;48.614;8.880;2023-12-20T15:12:25;4.10;99.90
12634;DHT22;6382;48.614;8.880;2023-12-20T15:14:51;2.90;99.90
12634;DHT22;6382;48.614;8.880;2023-12-20T15:17:16;4.00;99.90
12634;DHT22;6382;48.614;8.880;2023-12-20T15:19:42;3.90;99.90
12634;DHT22;6382;48.614;8.880;2023-12-20T15:22:08;4.00;99.90
12634;DHT22;6382;48.614;8.880;2023-12-20T15:24:33;4.00;99.90
12634;DHT22;6382;48.614;8.880;2023-12-20T15:27:07;4.00;99.90
12634;DHT22;6382;48.614;8.880;2023-12-20T15:29:33;4.00;99.90
12634;DHT22;6382;48.614;8.880;2023-12-20T15:31:58;3.90;99.90
12634;DHT22;6382;48.614;8.880;2023-12-20T15:34:24;3.90;99.90
12634;DHT22;6382;48.614;8.880;2023-12-20T15:36:49;3.90;99.90
12634;DHT22;6382;48.614;8.880;2023-12-20T15:39:15;3.80;99.90
12634;DHT22;6382;48.614;8.880;2023-12-20T15:41:41;3.80;99.90
12634;DHT22;6382;48.614;8.880;2023-12-20T15:44:06;3.70;99.90
12634;DHT22;6382;48.614;8.880;2023-12-20T15:46:32;3.70;99.90
12634;DHT22;6382;48.614;8.880;2023-12-20T15:48:57;3.70;99.90
12634;DHT22;6382;48.614;8.880;2023-12-20T15:51:23;3.70;99.90
12634;DHT22;6382;48.614;8.880;2023-12-20T15:53:49;3.70;99.90
12634;DHT22;6382;48.614;8.880;2023-12-20T15:56:15;3.70;99.90
12634;DHT22;6382;48.614;8.880;2023-12-20T15:58:41;3.60;99.90